createdAt,value
2022-08-17T00:00:15.794Z,19.53
2022-08-17T00:03:06.816Z,19.51
2022-08-17T00:05:39.425Z,19.47
2022-08-17T00:08:07.445Z,19.43
2022-08-17T00:10:35.965Z,19.36
2022-08-17T00:13:07.776Z,19.34
2022-08-17T00:15:35.865Z,19.33
2022-08-17T00:18:04.302Z,19.26
2022-08-17T00:20:54.044Z,19.21
2022-08-17T00:23:22.176Z,19.21
2022-08-17T00:25:50.820Z,19.28
2022-08-17T00:28:19.784Z,19.26
2022-08-17T00:30:53.573Z,19.23
2022-08-17T00:33:24.359Z,19.18
2022-08-17T00:35:54.260Z,19.17
2022-08-17T00:38:23.052Z,19.10
2022-08-17T00:40:55.766Z,19.06
2022-08-17T00:43:29.441Z,19.04
2022-08-17T00:45:58.073Z,19.03
2022-08-17T00:48:26.270Z,19.04
2022-08-17T00:51:00.746Z,19.04
2022-08-17T00:53:31.244Z,19.04
2022-08-17T00:56:00.478Z,19.07
2022-08-17T00:58:35.750Z,19.04
2022-08-17T01:01:05.358Z,19.04
2022-08-17T01:03:34.377Z,19.04
2022-08-17T01:06:05.046Z,19.03
2022-08-17T01:08:33.660Z,18.99
2022-08-17T01:11:02.641Z,18.95
2022-08-17T01:13:38.210Z,18.96
2022-08-17T01:16:20.253Z,18.89
2022-08-17T01:18:50.625Z,18.87
2022-08-17T01:21:24.133Z,18.83
2022-08-17T01:23:53.455Z,18.83
2022-08-17T01:26:21.519Z,18.82
2022-08-17T01:28:53.922Z,18.80
2022-08-17T01:31:25.668Z,18.75
2022-08-17T01:33:53.942Z,18.66
2022-08-17T01:36:21.940Z,18.65
2022-08-17T01:38:49.995Z,18.61
2022-08-17T01:41:19.961Z,18.56
2022-08-17T01:43:50.707Z,18.53
2022-08-17T01:46:23.158Z,18.48
2022-08-17T01:48:51.509Z,18.51
2022-08-17T01:51:19.912Z,18.59
2022-08-17T01:53:51.718Z,18.62
2022-08-17T01:56:23.390Z,18.62
2022-08-17T01:58:51.878Z,18.59
2022-08-17T02:01:22.022Z,18.56
2022-08-17T02:03:56.284Z,18.55
2022-08-17T02:06:29.093Z,18.55
2022-08-17T02:09:01.894Z,18.51
2022-08-17T02:11:34.665Z,18.53
2022-08-17T02:14:04.102Z,18.48
2022-08-17T02:16:37.863Z,18.48
2022-08-17T02:19:07.944Z,18.44
2022-08-17T02:21:36.528Z,18.41
2022-08-17T02:24:05.516Z,18.42
2022-08-17T02:26:34.919Z,18.44
2022-08-17T02:29:04.019Z,18.41
2022-08-17T02:31:32.310Z,18.39
2022-08-17T02:34:04.750Z,18.38
2022-08-17T02:36:34.287Z,18.37
2022-08-17T02:39:03.283Z,18.34
2022-08-17T02:41:31.289Z,18.35
2022-08-17T02:44:00.907Z,18.37
2022-08-17T02:46:29.968Z,18.32
2022-08-17T02:48:58.037Z,18.31
2022-08-17T02:51:26.312Z,18.25
2022-08-17T02:54:35.597Z,18.22
2022-08-17T02:56:42.316Z,18.20
2022-08-17T02:59:11.586Z,18.24
2022-08-17T03:01:39.645Z,18.20
2022-08-17T03:04:07.815Z,18.17
2022-08-17T03:06:35.899Z,18.17
2022-08-17T03:09:04.285Z,18.13
2022-08-17T03:11:32.705Z,18.10
2022-08-17T03:14:00.656Z,18.04
2022-08-17T03:16:29.958Z,18.04
2022-08-17T03:18:58.020Z,18.07
2022-08-17T03:21:25.959Z,18.11
2022-08-17T03:23:54.517Z,18.18
2022-08-17T03:26:22.747Z,18.24
2022-08-17T03:28:50.742Z,18.34
2022-08-17T03:31:20.661Z,18.39
2022-08-17T03:33:50.021Z,18.42
2022-08-17T03:36:17.992Z,18.45
2022-08-17T03:38:45.968Z,18.45
2022-08-17T03:41:14.554Z,18.47
2022-08-17T03:43:42.536Z,18.48
2022-08-17T03:46:35.008Z,18.47
2022-08-17T03:49:24.252Z,18.45
2022-08-17T03:52:10.010Z,18.44
2022-08-17T03:54:56.002Z,18.42
2022-08-17T03:57:24.616Z,18.41
2022-08-17T03:59:52.848Z,18.44
2022-08-17T04:02:24.680Z,18.47
2022-08-17T04:04:54.334Z,18.47
2022-08-17T04:07:24.364Z,18.51
2022-08-17T04:09:53.269Z,18.53
2022-08-17T04:12:22.923Z,18.58
2022-08-17T04:14:52.827Z,18.65
2022-08-17T04:17:24.171Z,18.73
2022-08-17T04:19:53.867Z,18.86
2022-08-17T04:22:31.850Z,18.96
2022-08-17T04:25:03.458Z,19.11
2022-08-17T04:27:31.754Z,19.30
2022-08-17T04:29:59.806Z,19.54
2022-08-17T04:33:05.526Z,19.82
2022-08-17T04:35:20.743Z,20.15
2022-08-17T04:37:48.701Z,20.47
2022-08-17T04:40:35.246Z,20.80
2022-08-17T04:43:05.094Z,21.26
2022-08-17T04:45:33.248Z,21.60
2022-08-17T04:48:01.812Z,21.97
2022-08-17T04:50:31.198Z,22.28
2022-08-17T04:52:59.463Z,22.66
2022-08-17T04:55:27.732Z,23.09
2022-08-17T04:57:55.791Z,23.60
2022-08-17T05:00:25.935Z,24.10
2022-08-17T05:02:56.188Z,24.57
2022-08-17T05:05:26.255Z,24.95
2022-08-17T05:07:56.898Z,25.18
2022-08-17T05:10:25.706Z,25.28
2022-08-17T05:12:59.471Z,25.39
2022-08-17T05:15:28.368Z,25.59
2022-08-17T05:18:01.444Z,25.79
2022-08-17T05:20:30.109Z,25.94
2022-08-17T05:23:01.819Z,26.18
2022-08-17T05:25:34.440Z,26.57
2022-08-17T05:28:05.454Z,27.02
2022-08-17T05:30:35.665Z,27.40
2022-08-17T05:33:05.419Z,27.53
2022-08-17T05:35:36.020Z,27.64
2022-08-17T05:38:05.787Z,27.66
2022-08-17T05:40:33.866Z,27.63
2022-08-17T05:43:06.817Z,27.66
2022-08-17T05:45:54.741Z,27.81
2022-08-17T05:48:39.413Z,27.99
2022-08-17T05:51:44.322Z,28.22
2022-08-17T05:54:30.038Z,28.49
2022-08-17T05:57:13.360Z,28.82
2022-08-17T05:59:48.507Z,29.07
2022-08-17T06:02:21.976Z,29.30
2022-08-17T06:05:13.827Z,29.52
2022-08-17T06:07:46.929Z,29.88
2022-08-17T06:10:24.181Z,30.27
2022-08-17T06:13:00.017Z,30.71
2022-08-17T06:15:32.183Z,31.00
2022-08-17T06:18:03.599Z,31.25
2022-08-17T06:20:44.797Z,31.53
2022-08-17T06:23:15.632Z,31.87
2022-08-17T06:25:49.234Z,32.10
2022-08-17T06:28:22.398Z,32.37
2022-08-17T06:30:58.622Z,32.48
2022-08-17T06:33:32.098Z,32.52
2022-08-17T06:36:09.303Z,32.62
2022-08-17T06:38:44.628Z,32.79
2022-08-17T06:41:19.752Z,32.90
2022-08-17T06:43:56.218Z,32.83
2022-08-17T06:46:27.461Z,32.62
2022-08-17T06:49:07.917Z,32.51
2022-08-17T06:51:39.494Z,32.51
2022-08-17T06:54:10.414Z,32.47
2022-08-17T06:56:53.780Z,32.58
2022-08-17T06:59:26.218Z,32.68
2022-08-17T07:02:01.281Z,32.61
2022-08-17T07:04:32.204Z,32.62
2022-08-17T07:07:24.043Z,32.79
2022-08-17T07:12:25.677Z,33.15
2022-08-17T07:14:55.507Z,33.33
2022-08-17T07:17:46.497Z,33.57
2022-08-17T07:20:15.973Z,33.87
2022-08-17T07:22:57.769Z,34.00
2022-08-17T07:28:04.254Z,34.01
2022-08-17T07:30:45.840Z,34.08
2022-08-17T07:33:17.773Z,34.12
2022-08-17T07:35:48.330Z,34.27
2022-08-17T07:38:25.069Z,34.58
2022-08-17T07:41:02.493Z,34.72
2022-08-17T07:43:33.963Z,34.90
2022-08-17T07:46:35.070Z,35.22
2022-08-17T07:49:26.078Z,35.45
2022-08-17T07:52:24.950Z,35.34
2022-08-17T07:54:54.467Z,35.44
2022-08-17T07:57:35.253Z,35.72
2022-08-17T08:00:29.177Z,35.37
2022-08-17T08:03:18.492Z,35.41
2022-08-17T08:05:55.940Z,35.78
2022-08-17T08:08:31.460Z,35.33
2022-08-17T08:11:03.554Z,34.66
2022-08-17T08:13:32.487Z,34.85
2022-08-17T08:16:24.174Z,35.19
2022-08-17T08:18:56.862Z,35.02
2022-08-17T08:21:39.461Z,35.44
2022-08-17T08:24:22.581Z,35.92
2022-08-17T08:26:56.315Z,35.94
2022-08-17T08:29:31.202Z,34.70
2022-08-17T08:32:08.685Z,34.00
2022-08-17T08:35:00.703Z,34.12
2022-08-17T08:37:42.928Z,33.95
2022-08-17T08:40:24.765Z,33.91
2022-08-17T08:42:57.952Z,34.65
2022-08-17T08:45:30.503Z,35.29
2022-08-17T08:48:22.956Z,35.88
2022-08-17T08:51:05.191Z,36.42
2022-08-17T08:53:36.929Z,36.59
2022-08-17T08:56:08.065Z,36.79
2022-08-17T08:58:43.660Z,37.03
2022-08-17T09:01:19.992Z,37.21
2022-08-17T09:06:49.903Z,37.95
2022-08-17T09:09:25.244Z,37.34
2022-08-17T09:12:03.492Z,36.66
2022-08-17T09:14:46.707Z,36.08
2022-08-17T09:17:19.168Z,36.05
2022-08-17T09:19:49.440Z,36.35
2022-08-17T09:22:25.484Z,36.50
2022-08-17T09:24:56.973Z,36.60
2022-08-17T09:27:28.911Z,36.47
2022-08-17T09:30:00.324Z,36.25
2022-08-17T09:32:34.569Z,36.33
2022-08-17T09:35:09.190Z,35.95
2022-08-17T09:37:54.871Z,35.92
2022-08-17T09:40:26.031Z,35.43
2022-08-17T09:42:57.388Z,35.35
2022-08-17T09:45:31.359Z,35.78
2022-08-17T09:48:04.941Z,36.35
2022-08-17T09:51:03.335Z,36.47
2022-08-17T09:53:31.558Z,35.20
2022-08-17T09:56:10.250Z,35.11
2022-08-17T09:59:04.895Z,35.61
2022-08-17T10:01:40.032Z,35.48
2022-08-17T10:04:29.312Z,35.44
2022-08-17T10:07:04.406Z,35.92
2022-08-17T10:09:40.749Z,35.80
2022-08-17T10:12:20.330Z,35.77
2022-08-17T10:14:56.058Z,36.06
2022-08-17T10:17:29.236Z,36.13
2022-08-17T10:20:01.889Z,36.22
2022-08-17T10:22:54.808Z,36.67
2022-08-17T10:25:56.722Z,36.90
2022-08-17T10:28:30.077Z,37.35
2022-08-17T10:31:30.913Z,36.94
2022-08-17T10:34:00.038Z,36.01
2022-08-17T10:36:37.999Z,35.24
2022-08-17T10:39:13.477Z,35.29
2022-08-17T10:41:46.703Z,35.40
2022-08-17T10:44:38.017Z,35.81
2022-08-17T10:47:11.305Z,36.36
2022-08-17T10:49:47.446Z,35.54
2022-08-17T10:52:49.929Z,34.90
2022-08-17T10:55:21.161Z,35.10
2022-08-17T10:57:50.641Z,35.77
2022-08-17T11:01:08.942Z,36.20
2022-08-17T11:03:37.040Z,36.38
2022-08-17T11:06:15.893Z,35.94
2022-08-17T11:08:58.954Z,35.71
2022-08-17T11:11:54.861Z,35.51
2022-08-17T11:14:39.126Z,35.57
2022-08-17T11:17:22.647Z,35.77
2022-08-17T11:20:14.117Z,36.01
2022-08-17T11:23:04.290Z,35.84
2022-08-17T11:25:39.172Z,35.57
2022-08-17T11:28:15.162Z,34.73
2022-08-17T11:30:48.568Z,34.49
2022-08-17T11:33:52.484Z,34.11
2022-08-17T11:38:58.794Z,32.99
2022-08-17T11:41:31.554Z,32.76
2022-08-17T11:44:15.647Z,32.68
2022-08-17T11:47:13.465Z,32.38
2022-08-17T11:50:11.550Z,32.21
2022-08-17T11:52:42.326Z,32.12
2022-08-17T11:55:52.795Z,32.18
2022-08-17T11:58:38.457Z,32.15
2022-08-17T12:01:07.319Z,32.11
2022-08-17T12:03:55.374Z,32.31
2022-08-17T12:06:33.413Z,32.37
2022-08-17T12:09:06.249Z,32.45
2022-08-17T12:12:13.351Z,32.55
2022-08-17T12:17:39.365Z,32.92
2022-08-17T12:20:17.597Z,33.09
2022-08-17T12:22:56.559Z,33.03
2022-08-17T12:25:32.933Z,32.72
2022-08-17T12:28:06.015Z,32.69
2022-08-17T12:30:37.382Z,32.74
2022-08-17T12:33:13.334Z,32.89
2022-08-17T12:35:59.663Z,33.02
2022-08-17T12:38:32.251Z,32.86
2022-08-17T12:41:23.251Z,32.71
2022-08-17T12:44:02.255Z,32.42
2022-08-17T12:46:34.885Z,32.38
2022-08-17T12:49:27.413Z,32.47
2022-08-17T12:52:04.202Z,32.37
2022-08-17T12:54:40.151Z,32.31
2022-08-17T12:57:13.535Z,32.29
2022-08-17T12:59:45.249Z,32.12
2022-08-17T13:02:31.221Z,31.93
2022-08-17T13:05:00.910Z,32.00
2022-08-17T13:07:36.330Z,32.24
2022-08-17T13:10:05.452Z,32.49
2022-08-17T13:12:36.279Z,32.69
2022-08-17T13:15:04.920Z,32.89
2022-08-17T13:17:36.638Z,33.07
2022-08-17T13:20:06.372Z,33.31
2022-08-17T13:22:34.510Z,33.46
2022-08-17T13:25:05.504Z,33.61
2022-08-17T13:27:34.315Z,33.76
2022-08-17T13:30:05.585Z,33.82
2022-08-17T13:32:43.595Z,33.92
2022-08-17T13:35:38.915Z,34.01
2022-08-17T13:38:10.412Z,34.12
2022-08-17T13:40:44.725Z,34.17
2022-08-17T13:43:13.002Z,34.28
2022-08-17T13:45:51.130Z,34.31
2022-08-17T13:48:32.087Z,34.38
2022-08-17T13:51:31.351Z,34.14
2022-08-17T13:54:03.166Z,33.97
2022-08-17T13:56:38.185Z,33.77
2022-08-17T13:59:09.663Z,33.03
2022-08-17T14:01:40.139Z,32.86
2022-08-17T14:04:11.357Z,32.90
2022-08-17T14:06:54.950Z,33.02
2022-08-17T14:09:25.755Z,33.15
2022-08-17T14:11:55.110Z,33.27
2022-08-17T14:14:24.162Z,33.26
2022-08-17T14:16:52.519Z,33.30
2022-08-17T14:19:22.755Z,33.34
2022-08-17T14:21:51.128Z,33.33
2022-08-17T14:24:23.893Z,33.30
2022-08-17T14:26:53.049Z,33.31
2022-08-17T14:29:21.521Z,33.29
2022-08-17T14:31:53.318Z,33.24
2022-08-17T14:34:24.784Z,33.24
2022-08-17T14:36:53.156Z,33.22
2022-08-17T14:39:21.335Z,33.15
2022-08-17T14:41:49.489Z,33.05
2022-08-17T14:44:17.629Z,32.89
2022-08-17T14:46:46.110Z,32.65
2022-08-17T14:49:15.620Z,32.37
2022-08-17T14:51:45.000Z,32.39
2022-08-17T14:54:33.026Z,32.29
2022-08-17T14:57:24.897Z,32.35
2022-08-17T14:59:53.412Z,32.37
2022-08-17T15:02:29.796Z,32.20
2022-08-17T15:05:02.536Z,32.08
2022-08-17T15:07:31.886Z,32.10
2022-08-17T15:10:01.587Z,32.14
2022-08-17T15:12:33.714Z,32.18
2022-08-17T15:15:04.644Z,32.22
2022-08-17T15:17:54.960Z,32.24
2022-08-17T15:20:23.925Z,32.15
2022-08-17T15:22:55.069Z,32.12
2022-08-17T15:25:24.236Z,32.11
2022-08-17T15:27:52.786Z,32.14
2022-08-17T15:30:21.223Z,32.17
2022-08-17T15:32:54.438Z,32.17
2022-08-17T15:35:27.985Z,32.20
2022-08-17T15:38:03.521Z,32.28
2022-08-17T15:40:37.036Z,32.31
2022-08-17T15:43:06.461Z,32.34
2022-08-17T15:45:35.236Z,32.31
2022-08-17T15:48:03.484Z,32.28
2022-08-17T15:50:31.789Z,32.21
2022-08-17T15:53:02.158Z,32.15
2022-08-17T15:55:32.076Z,31.98
2022-08-17T15:58:00.340Z,31.77
2022-08-17T16:00:29.408Z,31.57
2022-08-17T16:03:45.549Z,31.43
2022-08-17T16:05:47.966Z,31.36
2022-08-17T16:08:20.927Z,31.29
2022-08-17T16:10:50.110Z,31.27
2022-08-17T16:13:19.730Z,31.23
2022-08-17T16:15:56.553Z,31.22
2022-08-17T16:18:26.636Z,31.22
2022-08-17T16:20:55.046Z,31.15
2022-08-17T16:23:24.845Z,31.11
2022-08-17T16:25:54.402Z,31.08
2022-08-17T16:28:35.597Z,31.00
2022-08-17T16:31:07.991Z,30.96
2022-08-17T16:33:37.682Z,30.91
2022-08-17T16:36:06.161Z,30.85
2022-08-17T16:38:35.865Z,30.79
2022-08-17T16:41:04.492Z,30.79
2022-08-17T16:43:32.548Z,30.75
2022-08-17T16:46:01.721Z,30.75
2022-08-17T16:48:29.996Z,30.72
2022-08-17T16:51:04.193Z,30.69
2022-08-17T16:53:32.591Z,30.67
2022-08-17T16:56:01.956Z,30.65
2022-08-17T16:58:30.149Z,30.61
2022-08-17T17:00:59.729Z,30.55
2022-08-17T17:03:28.806Z,30.49
2022-08-17T17:06:07.272Z,30.44
2022-08-17T17:08:42.045Z,30.41
2022-08-17T17:11:24.612Z,30.37
2022-08-17T17:13:57.867Z,30.33
2022-08-17T17:16:32.501Z,30.27
2022-08-17T17:19:11.129Z,30.24
2022-08-17T17:21:45.376Z,30.17
2022-08-17T17:24:16.797Z,30.13
2022-08-17T17:27:08.590Z,30.09
2022-08-17T17:29:47.134Z,30.03
2022-08-17T17:32:20.924Z,29.97
2022-08-17T17:34:51.900Z,29.92
2022-08-17T17:37:24.379Z,29.88
2022-08-17T17:39:54.296Z,29.88
2022-08-17T17:42:28.200Z,29.83
2022-08-17T17:45:05.901Z,29.75
2022-08-17T17:47:34.559Z,29.72
2022-08-17T17:50:03.914Z,29.71
2022-08-17T17:52:37.819Z,29.66
2022-08-17T17:55:13.156Z,29.61
2022-08-17T17:57:51.170Z,29.57
2022-08-17T18:00:23.462Z,29.48
2022-08-17T18:03:02.273Z,29.41
2022-08-17T18:05:46.561Z,29.38
2022-08-17T18:08:34.146Z,29.31
2022-08-17T18:11:14.626Z,29.24
2022-08-17T18:14:04.387Z,29.21
2022-08-17T18:16:33.096Z,29.13
2022-08-17T18:19:01.463Z,29.03
2022-08-17T18:21:36.289Z,28.98
2022-08-17T18:24:07.741Z,28.91
2022-08-17T18:26:40.121Z,28.80
2022-08-17T18:29:23.851Z,28.72
2022-08-17T18:32:13.692Z,28.60
2022-08-17T18:34:47.645Z,28.50
2022-08-17T18:37:32.864Z,28.35
2022-08-17T18:40:24.505Z,28.21
2022-08-17T18:42:59.617Z,28.05
2022-08-17T18:45:35.399Z,27.91
2022-08-17T18:48:03.510Z,27.80
2022-08-17T18:50:39.428Z,27.70
2022-08-17T18:53:38.771Z,27.57
2022-08-17T18:56:18.208Z,27.46
2022-08-17T18:58:51.870Z,27.41
2022-08-17T19:01:22.259Z,27.36
2022-08-17T19:04:28.356Z,27.27
2022-08-17T19:07:12.543Z,27.19
2022-08-17T19:09:46.552Z,27.09
2022-08-17T19:12:27.112Z,27.03
2022-08-17T19:14:57.230Z,27.02
2022-08-17T19:17:32.765Z,26.96
2022-08-17T19:20:03.867Z,26.96
2022-08-17T19:22:43.779Z,26.88
2022-08-17T19:25:16.252Z,26.79
2022-08-17T19:27:50.090Z,26.69
2022-08-17T19:30:20.263Z,26.65
2022-08-17T19:32:50.396Z,26.54
2022-08-17T19:35:20.206Z,26.45
2022-08-17T19:37:54.042Z,26.37
2022-08-17T19:43:24.946Z,26.27
2022-08-17T19:46:03.862Z,26.25
2022-08-17T19:48:40.956Z,26.20
2022-08-17T19:51:11.724Z,26.16
2022-08-17T19:54:04.373Z,26.17
2022-08-17T19:56:37.514Z,26.12
2022-08-17T19:59:12.981Z,26.00
2022-08-17T20:01:46.741Z,25.92
2022-08-17T20:04:22.279Z,25.84
2022-08-17T20:06:50.470Z,25.82
2022-08-17T20:09:22.422Z,25.77
2022-08-17T20:11:54.110Z,25.75
2022-08-17T20:14:25.654Z,25.70
2022-08-17T20:16:54.037Z,25.66
2022-08-17T20:19:25.669Z,25.62
2022-08-17T20:21:55.906Z,25.63
2022-08-17T20:24:29.321Z,25.62
2022-08-17T20:26:59.814Z,25.61
2022-08-17T20:29:39.640Z,25.59
2022-08-17T20:32:16.317Z,25.56
2022-08-17T20:34:47.708Z,25.55
2022-08-17T20:37:31.394Z,25.55
2022-08-17T20:40:21.317Z,25.55
2022-08-17T20:42:49.368Z,25.53
2022-08-17T20:45:49.824Z,25.46
2022-08-17T20:48:36.938Z,25.46
2022-08-17T20:51:29.579Z,25.36
2022-08-17T20:54:08.476Z,25.32
2022-08-17T20:56:53.710Z,25.24
2022-08-17T21:00:00.593Z,25.14
2022-08-17T21:02:29.581Z,25.02
2022-08-17T21:05:27.516Z,24.99
2022-08-17T21:08:01.464Z,24.97
2022-08-17T21:10:35.593Z,24.97
2022-08-17T21:13:48.613Z,24.99
2022-08-17T21:16:40.484Z,25.07
2022-08-17T21:19:22.833Z,25.11
2022-08-17T21:22:01.950Z,25.14
2022-08-17T21:24:44.462Z,25.10
2022-08-17T21:27:23.436Z,25.07
2022-08-17T21:29:53.867Z,25.05
2022-08-17T21:32:29.529Z,25.04
2022-08-17T21:35:24.761Z,24.99
2022-08-17T21:37:57.428Z,24.99
2022-08-17T21:40:28.969Z,25.01
2022-08-17T21:42:59.963Z,25.01
2022-08-17T21:45:31.215Z,25.01
2022-08-17T21:48:13.931Z,25.01
2022-08-17T21:50:44.150Z,24.97
2022-08-17T21:53:14.543Z,24.94
2022-08-17T21:55:43.890Z,24.88
2022-08-17T21:58:24.370Z,24.84
2022-08-17T22:01:11.610Z,24.80
2022-08-17T22:03:39.968Z,24.78
2022-08-17T22:06:22.397Z,24.78
2022-08-17T22:09:12.724Z,24.76
2022-08-17T22:11:55.220Z,24.76
2022-08-17T22:14:25.653Z,24.74
2022-08-17T22:17:14.592Z,24.73
2022-08-17T22:19:44.595Z,24.70
2022-08-17T22:22:26.321Z,24.67
2022-08-17T22:24:57.456Z,24.64
2022-08-17T22:27:55.784Z,24.63
2022-08-17T22:30:31.130Z,24.56
2022-08-17T22:32:59.449Z,24.57
2022-08-17T22:35:34.740Z,24.54
2022-08-17T22:38:33.759Z,24.53
2022-08-17T22:41:25.541Z,24.50
2022-08-17T22:43:57.416Z,24.50
2022-08-17T22:46:26.195Z,24.49
2022-08-17T22:48:57.625Z,24.50
2022-08-17T22:51:28.797Z,24.50
2022-08-17T22:54:17.707Z,24.47
2022-08-17T22:57:15.183Z,24.49
2022-08-17T22:59:50.694Z,24.47
2022-08-17T23:02:25.123Z,24.44
2022-08-17T23:04:57.371Z,24.40
2022-08-17T23:07:25.306Z,24.36
2022-08-17T23:09:54.102Z,24.33
2022-08-17T23:12:26.284Z,24.29
2022-08-17T23:15:00.427Z,24.28
2022-08-17T23:17:33.905Z,24.20
2022-08-17T23:20:06.135Z,24.19
2022-08-17T23:22:34.191Z,24.15
2022-08-17T23:25:03.195Z,24.13
2022-08-17T23:27:31.799Z,24.10
2022-08-17T23:30:01.215Z,24.03
2022-08-17T23:32:29.208Z,24.08
2022-08-17T23:34:59.114Z,24.05
2022-08-17T23:37:27.583Z,24.05
2022-08-17T23:39:55.564Z,24.03
2022-08-17T23:42:23.770Z,23.99
2022-08-17T23:44:51.764Z,23.92
2022-08-17T23:47:21.272Z,23.89
2022-08-17T23:49:49.285Z,23.88
2022-08-17T23:52:22.738Z,23.85
2022-08-17T23:54:50.697Z,23.78
2022-08-17T23:57:20.405Z,23.77
